Time;durP1;ratioP1;P1;durP2;ratioP2;P2;SDS_P1;SDS_P2;PMS_P1;PMS_P2;Temp;Humidity;BMP_temperature;BMP_pressure;BME280_temperature;BME280_humidity;BME280_pressure;Samples;Min_cycle;Max_cycle;Signal;HPM_P1;HPM_P2
2021/05/08 00:02:02;;;;;;;26.70;24.77;;;;;;;6.01;60.24;99019.69;5086656;28;20032;-60
2021/05/08 00:04:28;;;;;;;23.03;21.20;;;;;;;5.91;60.56;99017.91;5086513;28;20027;-60
2021/05/08 00:06:54;;;;;;;25.70;23.93;;;;;;;5.92;60.81;99019.63;5085199;28;20058;-60
2021/05/08 00:09:19;;;;;;;30.50;28.17;;;;;;;5.87;61.29;99016.19;5085284;28;20147;-61
2021/05/08 00:11:45;;;;;;;11.60;6.03;;;;;;;5.86;61.35;99020.44;5085115;28;20280;-60
2021/05/08 00:14:10;;;;;;;17.37;15.53;;;;;;;5.93;61.42;99023.88;5083075;28;20044;-61
2021/05/08 00:16:37;;;;;;;50.57;47.10;;;;;;;5.89;61.63;99020.47;5082707;28;20427;-61
2021/05/08 00:19:04;;;;;;;82.50;76.47;;;;;;;5.92;61.83;99022.16;5079564;28;20047;-61
2021/05/08 00:21:30;;;;;;;14.83;10.97;;;;;;;5.90;61.48;99024.69;5086776;28;20032;-60
2021/05/08 00:23:55;;;;;;;14.83;12.03;;;;;;;5.93;61.80;99028.97;5087606;28;20035;-61
2021/05/08 00:26:21;;;;;;;20.47;18.60;;;;;;;5.85;61.92;99028.03;5084939;28;20052;-61
2021/05/08 00:28:46;;;;;;;40.57;37.70;;;;;;;5.73;62.59;99027.97;5083179;28;20039;-61
2021/05/08 00:31:12;;;;;;;33.37;30.70;;;;;;;5.76;62.36;99033.06;5085986;28;20047;-61
2021/05/08 00:33:37;;;;;;;26.30;24.20;;;;;;;5.64;62.79;99033.84;5091538;28;20123;-61
2021/05/08 00:36:03;;;;;;;36.97;34.30;;;;;;;5.56;63.16;99040.53;5083220;28;20032;-61
2021/05/08 00:38:29;;;;;;;174.50;153.93;;;;;;;5.51;63.20;99039.69;5083822;28;20035;-60
2021/05/08 00:40:54;;;;;;;256.83;168.90;;;;;;;5.46;63.42;99041.34;5084346;28;20035;-60
2021/05/08 00:43:20;;;;;;;154.60;139.17;;;;;;;5.41;63.83;99045.53;5083603;28;20043;-61
2021/05/08 00:45:45;;;;;;;133.23;121.03;;;;;;;5.34;63.89;99056.50;5084009;28;20338;-60
2021/05/08 00:48:13;;;;;;;133.10;121.30;;;;;;;5.29;64.56;99053.03;5084424;28;20032;-61
2021/05/08 00:50:39;;;;;;;265.50;161.63;;;;;;;5.38;64.05;99056.53;5084226;28;20028;-61
2021/05/08 00:53:08;;;;;;;203.67;158.03;;;;;;;5.37;64.06;99057.38;5081690;28;20094;-60
2021/05/08 00:55:35;;;;;;;146.07;131.73;;;;;;;5.32;64.38;99064.09;5082861;28;20048;-61
2021/05/08 00:58:01;;;;;;;275.50;157.57;;;;;;;5.31;64.09;99064.06;5087356;28;20169;-60
2021/05/08 01:00:28;;;;;;;149.00;134.10;;;;;;;5.30;64.34;99060.69;5082362;28;20370;-61
2021/05/08 01:02:53;;;;;;;168.07;144.37;;;;;;;5.27;64.33;99064.88;5081515;28;20056;-61
2021/05/08 01:05:19;;;;;;;296.70;159.57;;;;;;;5.26;64.59;99060.66;5081120;28;20445;-61
2021/05/08 01:07:45;;;;;;;158.07;140.97;;;;;;;5.26;64.64;99074.19;5079548;28;20093;-61
2021/05/08 01:10:13;;;;;;;165.40;146.87;;;;;;;5.26;64.77;99063.19;5086499;28;20048;-61
2021/05/08 01:12:39;;;;;;;139.57;125.60;;;;;;;5.30;64.68;99070.00;5080116;28;20043;-61
2021/05/08 01:15:07;;;;;;;153.03;136.40;;;;;;;5.28;64.49;99058.97;5081750;28;20028;-61
2021/05/08 01:17:32;;;;;;;393.30;166.90;;;;;;;5.25;64.85;99061.50;5081290;28;20043;-61
2021/05/08 01:19:58;;;;;;;417.73;167.07;;;;;;;5.32;64.44;99069.19;5082956;28;20265;-60
2021/05/08 01:22:23;;;;;;;162.43;134.93;;;;;;;5.34;63.97;99077.69;5081758;28;20078;-61
2021/05/08 01:24:49;;;;;;;219.20;155.60;;;;;;;5.39;64.04;99073.47;5081915;28;20055;-61
2021/05/08 01:27:14;;;;;;;189.83;144.27;;;;;;;5.31;64.50;99070.00;5091855;28;20033;-61
2021/05/08 01:29:40;;;;;;;426.63;165.07;;;;;;;5.28;64.20;99069.13;5080547;28;20393;-60
2021/05/08 01:32:06;;;;;;;205.60;141.93;;;;;;;5.34;63.96;99077.69;5084402;28;20043;-61
2021/05/08 01:34:31;;;;;;;203.57;145.37;;;;;;;5.29;64.34;99078.47;5081028;28;20040;-61
2021/05/08 01:36:57;;;;;;;420.03;162.93;;;;;;;5.22;64.77;99082.63;5080817;28;20499;-60
2021/05/08 01:39:22;;;;;;;131.83;118.80;;;;;;;5.20;64.35;99069.06;5080747;28;20388;-61
2021/05/08 01:41:48;;;;;;;128.47;115.30;;;;;;;5.22;64.82;99084.34;5083368;28;20028;-61
2021/05/08 01:44:13;;;;;;;180.37;135.27;;;;;;;5.17;64.87;99084.28;5084545;28;20042;-60
2021/05/08 01:46:39;;;;;;;130.70;117.63;;;;;;;5.16;65.07;99081.72;5085267;28;20103;-61
2021/05/08 01:49:05;;;;;;;169.53;134.63;;;;;;;5.15;64.98;99088.50;5084095;28;20039;-61
2021/05/08 01:51:31;;;;;;;131.13;118.50;;;;;;;5.17;64.88;99080.91;5084165;28;20038;-61
2021/05/08 01:53:56;;;;;;;120.93;109.83;;;;;;;5.22;65.12;99087.72;5085292;28;20281;-61
2021/05/08 01:56:22;;;;;;;143.83;128.40;;;;;;;5.17;64.88;99098.69;5084517;28;20025;-61
2021/05/08 01:58:47;;;;;;;129.87;116.63;;;;;;;5.21;64.54;99095.34;5092188;28;20024;-60
2021/05/08 02:01:13;;;;;;;139.23;125.17;;;;;;;5.15;64.72;99092.72;5092234;28;20372;-60
2021/05/08 02:03:39;;;;;;;167.53;131.00;;;;;;;5.23;64.36;99094.50;5081890;28;20024;-61
2021/05/08 02:06:04;;;;;;;180.17;136.73;;;;;;;5.23;64.31;99102.13;5084831;28;20048;-61
2021/05/08 02:08:30;;;;;;;199.33;139.90;;;;;;;5.24;64.17;99095.34;5086707;28;20119;-61
2021/05/08 02:10:55;;;;;;;196.80;144.33;;;;;;;5.28;64.22;99094.56;5084280;28;20052;-61
2021/05/08 02:13:21;;;;;;;177.20;139.50;;;;;;;5.27;64.11;99098.78;5082472;28;20308;-61
2021/05/08 02:15:46;;;;;;;165.93;130.53;;;;;;;5.30;63.57;99091.19;5083654;28;20342;-60
2021/05/08 02:18:12;;;;;;;161.80;129.07;;;;;;;5.26;64.02;99086.91;5082058;28;20043;-61
2021/05/08 02:20:43;;;;;;;157.23;128.27;;;;;;;5.32;64.06;99086.13;5083929;28;20092;-61
2021/05/08 02:23:11;;;;;;;415.30;156.73;;;;;;;5.30;64.04;99091.19;5086099;28;20411;-61
2021/05/08 02:25:36;;;;;;;131.23;117.23;;;;;;;5.24;64.51;99088.59;5085875;28;20033;-61
2021/05/08 02:28:03;;;;;;;410.10;154.40;;;;;;;5.21;64.77;99093.66;5084428;28;20039;-60
2021/05/08 02:30:31;;;;;;;373.43;165.53;;;;;;;5.27;64.49;99091.16;5084350;28;20568;-61
2021/05/08 02:32:57;;;;;;;421.20;164.93;;;;;;;5.24;64.64;99091.13;5083449;28;20036;-61
2021/05/08 02:35:25;;;;;;;194.07;138.10;;;;;;;5.22;64.73;99089.44;5088791;28;20024;-61
2021/05/08 02:37:51;;;;;;;424.13;158.53;;;;;;;5.25;64.72;99089.44;5085796;28;20052;-61
2021/05/08 02:40:21;;;;;;;426.73;152.93;;;;;;;5.20;64.99;99089.41;5084393;28;20020;-61
2021/05/08 02:42:47;;;;;;;429.63;159.23;;;;;;;5.21;64.66;99092.81;5085143;28;20286;-62
2021/05/08 02:45:13;;;;;;;392.70;155.40;;;;;;;5.23;64.76;99096.19;5086723;28;20035;-62
2021/05/08 02:47:40;;;;;;;21.70;19.83;;;;;;;5.22;64.77;99102.13;5083294;28;20024;-61
2021/05/08 02:50:07;;;;;;;24.57;22.00;;;;;;;5.08;65.31;99086.75;5086429;28;20056;-61
2021/05/08 02:52:33;;;;;;;22.70;20.87;;;;;;;5.14;65.43;99099.50;5084430;28;20024;-61
2021/05/08 02:54:58;;;;;;;29.03;26.70;;;;;;;5.09;65.39;99101.16;5087573;28;20059;-61
2021/05/08 02:57:24;;;;;;;131.50;118.37;;;;;;;5.03;65.94;99093.47;5084761;28;20056;-60
2021/05/08 02:59:49;;;;;;;112.27;102.40;;;;;;;5.06;65.50;99101.09;5087150;28;20028;-60
2021/05/08 03:02:15;;;;;;;94.67;86.63;;;;;;;5.02;66.16;99101.91;5083365;28;20621;-60
2021/05/08 03:04:40;;;;;;;88.17;80.53;;;;;;;4.91;66.47;99101.81;5083928;28;20036;-59
2021/05/08 03:07:06;;;;;;;57.57;53.30;;;;;;;4.94;66.25;99111.16;5083263;28;20082;-60
2021/05/08 03:09:32;;;;;;;66.73;61.57;;;;;;;4.88;66.22;99108.56;5083710;28;20101;-60
2021/05/08 03:11:59;;;;;;;64.90;60.00;;;;;;;4.93;66.18;99110.28;5082978;28;20050;-60
2021/05/08 03:14:24;;;;;;;64.23;59.43;;;;;;;4.84;66.77;99107.63;5083869;28;20030;-60
2021/05/08 03:16:49;;;;;;;78.23;71.90;;;;;;;4.80;67.02;99110.97;5084285;28;20023;-60
2021/05/08 03:19:15;;;;;;;88.00;80.67;;;;;;;4.79;66.52;99110.97;5084197;28;20385;-60
2021/05/08 03:21:41;;;;;;;79.00;72.07;;;;;;;4.81;66.91;99112.69;5084433;28;20071;-59
2021/05/08 03:24:07;;;;;;;410.23;154.23;;;;;;;4.81;66.78;99111.84;5084705;28;20035;-60
2021/05/08 03:26:32;;;;;;;101.87;93.07;;;;;;;4.86;67.08;99122.91;5082438;28;20423;-61
2021/05/08 03:28:58;;;;;;;73.30;67.27;;;;;;;4.86;66.95;99113.59;5087348;28;20052;-60
2021/05/08 03:31:24;;;;;;;74.83;68.60;;;;;;;4.92;66.61;99117.91;5082583;28;20020;-60
2021/05/08 03:33:49;;;;;;;76.57;70.47;;;;;;;4.98;66.96;99123.03;5082039;28;20055;-60
2021/05/08 03:36:15;;;;;;;211.67;138.80;;;;;;;5.06;66.24;99129.91;5083430;28;20125;-60
2021/05/08 03:38:40;;;;;;;76.97;71.07;;;;;;;5.10;66.18;99127.41;5085202;28;20024;-60
2021/05/08 03:41:06;;;;;;;39.17;36.33;;;;;;;5.12;66.58;99126.59;5083652;28;20154;-60
2021/05/08 03:43:31;;;;;;;48.27;44.50;;;;;;;5.09;66.10;99130.78;5082884;28;20043;-60
2021/05/08 03:45:57;;;;;;;41.27;38.27;;;;;;;5.02;66.61;99135.81;5084003;28;20032;-62
2021/05/08 03:48:23;;;;;;;33.83;30.83;;;;;;;4.91;67.09;99136.53;5085396;28;20020;-60
2021/05/08 03:50:49;;;;;;;29.80;27.43;;;;;;;4.90;67.56;99130.59;5084014;28;20089;-60
2021/05/08 03:53:14;;;;;;;28.90;26.07;;;;;;;4.87;67.10;99137.31;5079599;28;20038;-60
2021/05/08 03:55:40;;;;;;;25.33;23.07;;;;;;;4.88;66.95;99131.41;5082287;28;20296;-60
2021/05/08 03:58:06;;;;;;;45.67;42.53;;;;;;;4.93;66.90;99132.28;5082967;28;20419;-60
2021/05/08 04:00:32;;;;;;;44.43;40.67;;;;;;;4.98;66.24;99133.19;5082078;28;20065;-60
2021/05/08 04:02:58;;;;;;;24.30;21.87;;;;;;;5.04;66.48;99136.69;5081067;28;20031;-60
2021/05/08 04:05:23;;;;;;;13.27;7.70;;;;;;;5.18;65.98;99133.44;5085684;28;20483;-60
2021/05/08 04:07:49;;;;;;;16.57;8.23;;;;;;;5.45;65.50;99144.72;5082400;28;20066;-60
2021/05/08 04:10:15;;;;;;;14.97;8.57;;;;;;;5.58;66.02;99143.16;5089236;28;20039;-61
2021/05/08 04:12:40;;;;;;;21.23;8.73;;;;;;;5.81;65.22;99145.91;5080592;28;20114;-60
2021/05/08 04:15:07;;;;;;;16.53;10.33;;;;;;;6.09;64.25;99144.44;5081716;28;20103;-60
2021/05/08 04:17:32;;;;;;;17.07;10.53;;;;;;;6.20;63.79;99152.97;5081362;28;20067;-60
2021/05/08 04:19:57;;;;;;;12.83;11.17;;;;;;;6.32;63.39;99153.09;5081372;28;20047;-60
2021/05/08 04:22:23;;;;;;;18.73;10.60;;;;;;;6.42;63.33;99154.81;5081422;28;20032;-60
2021/05/08 04:24:48;;;;;;;23.70;10.43;;;;;;;6.53;63.13;99157.44;5080709;28;20151;-60
2021/05/08 04:27:14;;;;;;;12.47;8.47;;;;;;;6.72;62.56;99160.09;5079659;28;20031;-61
2021/05/08 04:29:39;;;;;;;13.33;6.07;;;;;;;6.70;62.60;99156.69;5080610;28;20032;-61
2021/05/08 04:32:05;;;;;;;9.67;5.40;;;;;;;6.74;62.35;99166.06;5084016;28;20028;-61
2021/05/08 04:34:30;;;;;;;10.83;5.03;;;;;;;6.77;62.25;99162.66;5083413;28;20089;-61
2021/05/08 04:36:56;;;;;;;13.20;6.33;;;;;;;6.78;62.47;99166.91;5087764;28;20024;-60
2021/05/08 04:39:22;;;;;;;16.23;7.30;;;;;;;6.81;62.72;99167.78;5082427;28;20376;-60
2021/05/08 04:41:47;;;;;;;14.43;6.23;;;;;;;6.87;62.48;99167.78;5085787;28;20023;-60
2021/05/08 04:44:12;;;;;;;14.60;6.67;;;;;;;7.01;61.98;99165.31;5082559;28;20293;-60
2021/05/08 04:46:38;;;;;;;12.60;5.93;;;;;;;7.00;62.14;99166.13;5084603;28;20408;-60
2021/05/08 04:49:03;;;;;;;9.73;4.87;;;;;;;7.11;62.11;99174.69;5083859;28;20040;-61
2021/05/08 04:51:29;;;;;;;11.70;6.40;;;;;;;7.14;61.88;99168.75;5083925;28;20072;-60
2021/05/08 04:53:54;;;;;;;12.13;5.53;;;;;;;7.17;61.39;99173.88;5083627;28;20059;-61
2021/05/08 04:56:22;;;;;;;14.43;6.03;;;;;;;7.41;61.28;99176.50;5081631;28;20056;-60
2021/05/08 04:58:47;;;;;;;11.43;5.97;;;;;;;7.39;61.18;99170.50;5083342;28;20017;-60
2021/05/08 05:01:13;;;;;;;14.77;6.83;;;;;;;7.47;60.74;99173.09;5080184;28;20281;-61
2021/05/08 05:03:39;;;;;;;14.93;6.50;;;;;;;7.63;60.22;99172.28;5083225;28;20324;-61
2021/05/08 05:06:04;;;;;;;11.90;5.83;;;;;;;7.66;60.01;99170.59;5083942;28;20060;-61
2021/05/08 05:08:30;;;;;;;10.93;6.00;;;;;;;7.74;59.90;99175.69;5084672;28;20032;-61
2021/05/08 05:10:55;;;;;;;11.63;5.53;;;;;;;7.88;59.23;99176.56;5084631;28;20085;-60
2021/05/08 05:13:22;;;;;;;13.43;5.87;;;;;;;7.86;58.56;99178.25;5083086;28;20411;-60
2021/05/08 05:15:48;;;;;;;13.87;6.33;;;;;;;7.96;58.57;99179.09;5083906;28;20024;-60
2021/05/08 05:18:14;;;;;;;12.53;5.77;;;;;;;7.97;57.86;99183.38;5085401;28;20033;-61
2021/05/08 05:20:40;;;;;;;13.07;6.30;;;;;;;7.98;58.20;99179.94;5087911;28;20052;-60
2021/05/08 05:23:06;;;;;;;17.40;6.97;;;;;;;7.99;58.67;99181.66;5087861;28;20065;-61
2021/05/08 05:25:31;;;;;;;10.77;5.50;;;;;;;8.03;57.85;99183.34;5088053;28;20033;-60
2021/05/08 05:27:57;;;;;;;15.10;6.77;;;;;;;8.11;58.10;99185.06;5086348;28;20043;-60
2021/05/08 05:30:22;;;;;;;11.83;5.50;;;;;;;8.26;57.49;99189.31;5087233;28;20036;-60
2021/05/08 05:32:48;;;;;;;18.53;6.97;;;;;;;8.37;57.15;99179.09;5085380;28;20882;-60
2021/05/08 05:35:14;;;;;;;22.63;8.23;;;;;;;8.43;56.56;99182.50;5084125;28;20051;-62
2021/05/08 05:37:39;;;;;;;15.83;6.37;;;;;;;8.59;56.48;99184.19;5088857;28;20073;-62
2021/05/08 05:40:06;;;;;;;14.27;6.23;;;;;;;8.59;56.55;99176.50;5087444;28;20029;-60
2021/05/08 05:42:32;;;;;;;17.20;6.83;;;;;;;8.52;56.62;99195.28;5084165;28;20039;-61
2021/05/08 05:44:57;;;;;;;16.67;6.23;;;;;;;8.53;55.63;99198.69;5086436;28;20019;-61
2021/05/08 05:47:23;;;;;;;14.60;6.40;;;;;;;8.67;54.98;99195.22;5086837;28;20028;-61
2021/05/08 05:49:52;;;;;;;15.77;7.03;;;;;;;8.71;55.61;99196.94;5086167;28;20123;-61
2021/05/08 05:52:19;;;;;;;17.00;7.30;;;;;;;8.69;55.83;99197.78;5085816;28;20293;-61
2021/05/08 05:54:49;;;;;;;12.80;6.43;;;;;;;8.94;55.33;99196.88;5087967;28;20434;-61
2021/05/08 05:57:15;;;;;;;12.53;5.53;;;;;;;9.20;54.33;99193.34;5088297;28;20403;-61
2021/05/08 05:59:41;;;;;;;12.27;6.40;;;;;;;9.25;53.89;99195.00;5085457;28;20028;-61
2021/05/08 06:02:08;;;;;;;11.63;5.40;;;;;;;9.27;53.92;99189.91;5085386;28;20376;-60
2021/05/08 06:04:33;;;;;;;12.00;5.60;;;;;;;9.43;53.98;99196.63;5085969;28;20032;-60
2021/05/08 06:06:59;;;;;;;11.87;5.93;;;;;;;9.56;53.04;99190.59;5086320;28;20040;-60
2021/05/08 06:09:26;;;;;;;11.47;5.23;;;;;;;9.49;53.44;99187.22;5087941;28;20029;-60
2021/05/08 06:11:56;;;;;;;12.27;5.47;;;;;;;9.57;51.73;99190.59;5086063;28;20031;-60
2021/05/08 06:14:26;;;;;;;15.37;6.40;;;;;;;9.42;52.06;99192.41;5086104;28;20274;-59
2021/05/08 06:16:55;;;;;;;13.50;6.03;;;;;;;9.41;52.00;99189.00;5084457;28;20102;-60
2021/05/08 06:19:20;;;;;;;11.40;5.20;;;;;;;9.55;52.06;99186.31;5082762;28;20043;-60
2021/05/08 06:21:46;;;;;;;15.00;6.17;;;;;;;9.88;50.63;99193.81;5084784;28;20063;-60
2021/05/08 06:24:11;;;;;;;11.47;4.83;;;;;;;10.03;50.39;99191.13;5083810;28;20036;-60
2021/05/08 06:26:37;;;;;;;9.73;4.90;;;;;;;9.97;51.39;99192.91;5084192;28;20032;-62
2021/05/08 06:29:03;;;;;;;10.53;4.77;;;;;;;10.03;50.05;99185.16;5084261;28;20285;-62
2021/05/08 06:31:29;;;;;;;12.63;5.47;;;;;;;10.09;49.88;99185.09;5086453;28;20381;-62
2021/05/08 06:33:55;;;;;;;13.60;6.33;;;;;;;10.12;48.56;99179.09;5085204;28;20455;-61
2021/05/08 06:36:21;;;;;;;14.90;6.17;;;;;;;10.11;48.74;99178.25;5086201;28;20036;-62
2021/05/08 06:38:46;;;;;;;11.33;5.33;;;;;;;10.27;48.54;99181.56;5084074;28;20035;-61
2021/05/08 06:41:12;;;;;;;15.63;6.60;;;;;;;10.33;47.69;99187.47;5080588;28;20055;-62
2021/05/08 06:43:37;;;;;;;12.37;5.53;;;;;;;10.22;47.72;99186.75;5082335;28;20389;-61
2021/05/08 06:46:03;;;;;;;13.43;5.67;;;;;;;10.25;46.94;99193.53;5084237;28;20024;-61
2021/05/08 06:48:28;;;;;;;9.53;4.10;;;;;;;10.23;47.49;99192.69;5083330;28;20036;-62
2021/05/08 06:50:54;;;;;;;14.27;5.33;;;;;;;10.16;45.66;99193.63;5083463;28;20029;-61
2021/05/08 06:53:19;;;;;;;14.00;5.17;;;;;;;10.21;44.67;99189.31;5083951;28;20024;-61
2021/05/08 06:55:45;;;;;;;9.77;4.30;;;;;;;10.44;44.53;99184.81;5084064;28;20028;-61
2021/05/08 06:58:10;;;;;;;10.50;4.30;;;;;;;10.47;44.17;99172.84;5084024;28;20067;-59
2021/05/08 07:00:36;;;;;;;10.50;4.83;;;;;;;10.61;43.25;99180.34;5085436;28;20023;-61
2021/05/08 07:03:02;;;;;;;9.83;3.80;;;;;;;10.77;41.97;99174.22;5083947;28;20032;-61
2021/05/08 07:05:31;;;;;;;12.47;5.13;;;;;;;10.64;41.06;99175.22;5081332;28;20040;-61
2021/05/08 07:08:05;;;;;;;11.00;7.67;;;;;;;10.88;39.69;99166.41;5083044;28;20041;-61
2021/05/08 07:10:31;;;;;;;8.60;3.63;;;;;;;10.74;38.82;99181.94;5093278;28;20297;-61
2021/05/08 07:12:57;;;;;;;18.03;14.83;;;;;;;10.80;39.06;99168.19;5083116;28;20029;-61
2021/05/08 07:15:22;;;;;;;18.20;10.03;;;;;;;10.86;37.16;99165.59;5082361;28;20151;-61
2021/05/08 07:18:09;;;;;;;16.50;7.50;;;;;;;10.93;37.75;99173.19;5091381;28;20028;-61
2021/05/08 07:20:36;;;;;;;11.23;4.70;;;;;;;11.17;38.15;99169.44;5083002;28;20111;-61
2021/05/08 07:23:03;;;;;;;12.33;5.47;;;;;;;11.22;37.53;99171.97;5083118;28;20078;-61
2021/05/08 07:25:30;;;;;;;12.10;5.97;;;;;;;11.08;38.47;99168.72;5083079;28;20016;-61
2021/05/08 07:28:21;;;;;;;13.63;6.50;;;;;;;11.05;38.61;99161.91;5082416;28;20032;-60
2021/05/08 07:30:49;;;;;;;12.90;5.43;;;;;;;11.29;38.29;99163.31;5082143;28;20067;-61
2021/05/08 07:33:16;;;;;;;12.50;5.67;;;;;;;11.56;38.01;99162.09;5081945;28;20396;-61
2021/05/08 07:35:43;;;;;;;10.60;5.00;;;;;;;11.66;37.92;99164.50;5083709;28;20169;-61
2021/05/08 07:38:08;;;;;;;12.00;7.20;;;;;;;11.42;36.75;99169.97;5085991;28;20292;-61
2021/05/08 07:40:38;;;;;;;12.47;5.20;;;;;;;11.55;37.86;99163.78;5083480;28;20020;-61
2021/05/08 07:43:04;;;;;;;14.90;6.67;;;;;;;11.40;37.80;99174.28;5082455;28;20190;-61
2021/05/08 07:45:31;;;;;;;17.13;6.90;;;;;;;11.25;38.22;99167.63;5082524;28;20107;-61
2021/05/08 07:47:57;;;;;;;10.43;4.77;;;;;;;11.64;38.68;99162.81;5084097;28;20024;-61
2021/05/08 07:50:27;;;;;;;9.60;5.53;;;;;;;11.76;38.81;99175.50;5082396;28;20099;-61
2021/05/08 07:52:53;;;;;;;11.50;5.03;;;;;;;12.06;37.01;99166.47;5085246;28;20330;-64
2021/05/08 07:55:19;;;;;;;17.02;7.35;;;;;;;11.81;37.07;99164.28;5082708;28;20409;-61
2021/05/08 07:57:45;;;;;;;15.88;6.47;;;;;;;12.01;36.67;99174.25;5082449;28;20099;-61
2021/05/08 08:00:12;;;;;;;18.92;7.13;;;;;;;11.99;36.61;99175.16;5081742;28;20025;-61
2021/05/08 08:02:38;;;;;;;13.20;5.18;;;;;;;12.15;36.85;99179.16;5084550;28;20129;-62
2021/05/08 08:05:05;;;;;;;12.80;6.00;;;;;;;12.15;36.22;99174.88;5084250;28;20016;-61
2021/05/08 08:07:31;;;;;;;12.52;5.65;;;;;;;12.15;36.41;99180.03;5081649;28;20067;-62
2021/05/08 08:09:57;;;;;;;15.18;5.60;;;;;;;12.26;35.64;99169.56;5082797;28;20032;-61
2021/05/08 08:12:22;;;;;;;12.75;7.10;;;;;;;12.42;35.80;99165.84;5081303;28;20035;-61
2021/05/08 08:14:49;;;;;;;15.60;6.10;;;;;;;12.61;35.06;99166.34;5080831;28;20315;-62
2021/05/08 08:17:14;;;;;;;13.45;6.82;;;;;;;12.72;35.95;99161.88;5085135;28;20024;-61
2021/05/08 08:19:40;;;;;;;13.95;7.47;;;;;;;12.67;34.87;99155.97;5082611;28;20020;-61
2021/05/08 08:22:05;;;;;;;15.02;9.85;;;;;;;12.54;34.11;99160.50;5081679;28;20031;-61
2021/05/08 08:24:31;;;;;;;26.13;23.73;;;;;;;12.45;34.15;99159.81;5080492;28;20025;-61
2021/05/08 08:26:58;;;;;;;22.27;19.90;;;;;;;12.39;35.15;99159.94;5081273;28;20024;-61
2021/05/08 08:29:26;;;;;;;15.57;10.43;;;;;;;12.70;34.55;99149.03;5082356;28;20024;-62
2021/05/08 08:31:51;;;;;;;78.75;74.20;;;;;;;12.72;33.96;99142.16;5080812;28;20020;-60
2021/05/08 08:34:17;;;;;;;52.35;48.80;;;;;;;13.00;33.29;99145.00;5081538;28;20020;-60
2021/05/08 08:36:42;;;;;;;15.27;7.80;;;;;;;13.17;33.53;99149.84;5081453;28;20020;-60
2021/05/08 08:39:08;;;;;;;11.20;5.13;;;;;;;13.17;33.68;99157.56;5081539;28;20028;-60
2021/05/08 08:41:34;;;;;;;11.73;5.65;;;;;;;13.22;33.24;99148.88;5080782;28;20016;-61
2021/05/08 08:44:01;;;;;;;12.07;4.78;;;;;;;13.16;32.94;99151.56;5081694;28;20034;-60
2021/05/08 08:46:26;;;;;;;16.75;6.22;;;;;;;13.41;32.50;99148.47;5081326;28;20016;-60
2021/05/08 08:48:52;;;;;;;14.05;5.72;;;;;;;13.27;31.05;99143.63;5082243;28;20024;-60
2021/05/08 08:51:18;;;;;;;16.13;6.40;;;;;;;13.24;31.50;99146.22;5080357;28;20025;-60
2021/05/08 08:53:47;;;;;;;8.93;4.05;;;;;;;13.25;32.30;99137.63;5079915;28;20103;-61
2021/05/08 08:56:15;;;;;;;12.48;5.70;;;;;;;13.69;32.52;99134.91;5081111;28;20055;-61
2021/05/08 08:58:43;;;;;;;17.50;6.43;;;;;;;13.18;31.81;99138.66;5084371;28;20097;-61
2021/05/08 09:01:09;;;;;;;15.38;5.90;;;;;;;13.32;31.67;99126.34;5081010;28;20020;-60
2021/05/08 09:03:35;;;;;;;11.70;4.95;;;;;;;13.69;30.99;99129.78;5081621;28;20028;-61
2021/05/08 09:06:01;;;;;;;12.48;5.15;;;;;;;14.04;30.23;99122.91;5080630;28;20400;-61
2021/05/08 09:08:29;;;;;;;12.73;5.40;;;;;;;14.04;31.28;99116.03;5081717;28;20109;-61
2021/05/08 09:11:17;;;;;;;11.88;4.88;;;;;;;14.11;30.34;99119.28;5079988;28;20024;-61
2021/05/08 09:13:42;;;;;;;8.82;4.13;;;;;;;13.92;30.12;99116.31;5080247;28;20158;-60
2021/05/08 09:16:08;;;;;;;9.65;4.53;;;;;;;14.10;30.33;99118.44;5090001;28;20104;-60
2021/05/08 09:18:36;;;;;;;10.02;4.40;;;;;;;14.30;29.55;99122.25;5081325;28;20035;-61
2021/05/08 09:21:03;;;;;;;10.02;4.35;;;;;;;14.10;29.77;99104.69;5080692;28;20486;-61
2021/05/08 09:23:38;;;;;;;11.02;4.57;;;;;;;14.44;30.11;99121.00;5078704;28;20032;-62
2021/05/08 09:26:10;;;;;;;9.43;4.28;;;;;;;13.83;29.66;99113.97;5079844;28;20439;-62
2021/05/08 09:28:38;;;;;;;11.82;5.18;;;;;;;14.18;30.21;99113.06;5080495;28;20028;-61
2021/05/08 09:31:06;;;;;;;10.35;4.90;;;;;;;14.51;30.57;99101.91;5078711;28;20081;-61
2021/05/08 09:33:32;;;;;;;8.13;3.55;;;;;;;14.78;28.96;99113.19;5082496;28;20020;-62
2021/05/08 09:35:58;;;;;;;14.10;5.78;;;;;;;14.81;28.67;99100.19;5081057;28;20039;-61
2021/05/08 09:38:30;;;;;;;9.20;3.55;;;;;;;14.82;29.38;99106.22;5090667;28;20025;-61
2021/05/08 09:40:56;;;;;;;10.88;4.00;;;;;;;14.54;30.01;99096.69;5080184;28;20032;-61
2021/05/08 09:43:22;;;;;;;11.77;4.28;;;;;;;14.91;30.30;99093.03;5080574;28;20713;-62
2021/05/08 09:45:52;;;;;;;8.75;3.92;;;;;;;15.00;28.79;99095.34;5081744;28;20081;-62
2021/05/08 09:48:23;;;;;;;14.15;4.88;;;;;;;15.10;28.75;99094.22;5078892;28;20028;-62
2021/05/08 09:50:49;;;;;;;11.10;4.40;;;;;;;15.08;29.32;99093.41;5080730;28;20063;-61
2021/05/08 09:53:29;;;;;;;11.02;4.50;;;;;;;15.32;27.98;99087.47;5080345;28;20285;-61
2021/05/08 09:55:55;;;;;;;12.10;4.55;;;;;;;15.32;28.71;99086.66;5079264;28;20097;-61
2021/05/08 09:58:23;;;;;;;8.93;3.78;;;;;;;15.71;27.42;99082.81;5080946;28;20029;-60
2021/05/08 10:00:50;;;;;;;10.80;4.45;;;;;;;15.72;27.00;99075.91;5081049;28;20031;-61
2021/05/08 10:03:17;;;;;;;11.82;4.47;;;;;;;15.89;26.71;99074.47;5079321;28;20024;-61
2021/05/08 10:05:48;;;;;;;10.55;4.20;;;;;;;15.69;28.47;99069.13;5082832;28;20043;-61
2021/05/08 10:08:14;;;;;;;10.35;3.90;;;;;;;16.13;27.34;99065.03;5083918;28;20028;-61
2021/05/08 10:10:40;;;;;;;9.57;4.15;;;;;;;16.17;27.12;99058.84;5085860;28;20026;-61
2021/05/08 10:13:10;;;;;;;8.18;3.70;;;;;;;16.20;26.93;99061.34;5085194;28;20023;-61
2021/05/08 10:15:38;;;;;;;10.27;4.25;;;;;;;16.31;28.32;99056.63;5085107;28;20032;-61
2021/05/08 10:18:05;;;;;;;18.67;7.60;;;;;;;16.66;27.60;99054.56;5088579;28;20101;-60
2021/05/08 10:20:32;;;;;;;8.13;3.97;;;;;;;16.84;27.14;99048.72;5095194;28;20400;-60
2021/05/08 10:23:06;;;;;;;8.65;4.00;;;;;;;17.11;28.21;99055.41;5085319;28;20285;-61
2021/05/08 10:25:32;;;;;;;8.88;3.53;;;;;;;17.11;29.34;99050.22;5086543;28;20031;-62
2021/05/08 10:27:57;;;;;;;9.30;4.45;;;;;;;17.28;26.25;99039.19;5085103;28;20074;-60
2021/05/08 10:30:28;;;;;;;12.52;4.68;;;;;;;17.39;26.09;99044.81;5086068;28;20036;-60
2021/05/08 10:32:54;;;;;;;9.63;3.88;;;;;;;17.12;25.52;99040.72;5085789;28;20459;-60
2021/05/08 10:35:38;;;;;;;13.88;5.60;;;;;;;17.18;25.86;99041.34;5088482;28;20016;-59
2021/05/08 10:38:23;;;;;;;6.95;3.20;;;;;;;17.18;29.23;99046.50;5085783;28;20032;-60
2021/05/08 10:40:58;;;;;;;14.32;5.97;;;;;;;16.82;29.94;99043.56;5084335;28;20024;-60
2021/05/08 10:43:54;;;;;;;9.68;5.65;;;;;;;17.10;29.75;99047.72;5082784;28;20036;-61
2021/05/08 10:46:22;;;;;;;9.45;5.10;;;;;;;17.48;30.67;99031.50;5083648;28;20063;-60
2021/05/08 10:49:06;;;;;;;11.68;5.38;;;;;;;17.52;29.65;99034.81;5083645;28;20145;-61
2021/05/08 10:51:56;;;;;;;8.73;3.92;;;;;;;17.75;29.54;99027.78;5082836;28;20025;-60
2021/05/08 10:54:43;;;;;;;10.05;4.80;;;;;;;17.99;30.59;99035.47;5087270;28;20389;-60
2021/05/08 10:57:25;;;;;;;12.50;5.18;;;;;;;18.31;30.07;99032.31;5083166;28;20115;-60
2021/05/08 11:00:02;;;;;;;12.55;5.15;;;;;;;18.60;28.68;99033.63;5082687;28;20029;-61
2021/05/08 11:02:40;;;;;;;7.25;4.30;;;;;;;18.72;26.45;99033.09;5081202;28;20048;-61
2021/05/08 11:05:26;;;;;;;11.48;4.88;;;;;;;18.21;26.99;99023.22;5085038;28;20039;-61
2021/05/08 11:07:52;;;;;;;14.30;5.32;;;;;;;18.23;26.96;99027.47;5081809;28;20048;-60
2021/05/08 11:10:32;;;;;;;11.95;5.50;;;;;;;18.38;26.93;99022.47;5084022;28;20028;-61
2021/05/08 11:13:11;;;;;;;12.65;5.28;;;;;;;18.19;29.26;99014.69;5079891;28;20094;-61
2021/05/08 11:15:51;;;;;;;12.10;5.30;;;;;;;18.17;27.76;99025.13;5085312;28;20389;-61
2021/05/08 11:18:40;;;;;;;8.13;7.18;;;;;;;17.96;28.91;99020.00;5085764;28;20569;-61
2021/05/08 11:21:12;;;;;;;10.65;5.25;;;;;;;17.87;28.75;99020.38;5082890;28;20055;-60
2021/05/08 11:23:43;;;;;;;10.73;4.35;;;;;;;17.89;27.58;99014.25;5082063;28;20032;-60
2021/05/08 11:26:21;;;;;;;12.10;6.00;;;;;;;17.92;27.19;99014.09;5081307;28;20038;-63